createdAt,value
2022-10-22T00:01:12.820Z,1.02
2022-10-22T00:03:40.902Z,1.10
2022-10-22T00:06:09.353Z,0.98
2022-10-22T00:08:37.447Z,0.85
2022-10-22T00:11:13.714Z,1.27
2022-10-22T00:13:48.330Z,1.05
2022-10-22T00:16:16.509Z,0.85
2022-10-22T00:18:44.611Z,1.30
2022-10-22T00:21:13.134Z,1.20
2022-10-22T00:23:42.272Z,1.20
2022-10-22T00:26:11.017Z,1.25
2022-10-22T00:28:39.568Z,1.05
2022-10-22T00:31:08.930Z,1.05
2022-10-22T00:33:36.953Z,1.20
2022-10-22T00:36:05.794Z,1.15
2022-10-22T00:38:34.161Z,1.20
2022-10-22T00:43:30.056Z,0.70
2022-10-22T00:45:58.084Z,0.90
2022-10-22T00:48:30.838Z,0.75
2022-10-22T00:53:33.011Z,1.40
2022-10-22T00:56:02.107Z,1.30
2022-10-22T00:58:33.899Z,1.00
2022-10-22T01:01:04.471Z,1.10
2022-10-22T01:03:34.074Z,0.85
2022-10-22T01:06:05.109Z,0.90
2022-10-22T01:08:39.719Z,0.77
2022-10-22T01:11:15.742Z,0.82
2022-10-22T01:13:55.198Z,0.80
2022-10-22T01:16:33.557Z,1.10
2022-10-22T01:19:15.005Z,0.80
2022-10-22T01:21:46.505Z,1.10
2022-10-22T01:24:36.652Z,1.10
2022-10-22T01:27:16.400Z,1.40
2022-10-22T01:29:49.409Z,0.98
2022-10-22T01:32:20.269Z,1.05
2022-10-22T01:34:52.087Z,1.10
2022-10-22T01:37:23.400Z,0.90
2022-10-22T01:39:52.986Z,1.42
2022-10-22T01:42:20.992Z,1.17
2022-10-22T01:44:50.305Z,1.10
2022-10-22T01:47:27.173Z,1.30
2022-10-22T01:50:20.401Z,1.20
2022-10-22T01:55:29.699Z,1.60
2022-10-22T01:58:09.366Z,1.05
2022-10-22T02:00:45.727Z,1.38
2022-10-22T02:03:21.258Z,0.90
2022-10-22T02:05:55.613Z,0.80
2022-10-22T02:08:26.309Z,1.08
2022-10-22T02:10:54.938Z,0.80
2022-10-22T02:13:29.220Z,0.60
2022-10-22T02:16:00.031Z,0.47
2022-10-22T02:18:33.565Z,0.40
2022-10-22T02:21:03.743Z,0.70
2022-10-22T02:23:31.779Z,0.98
2022-10-22T02:26:04.673Z,0.88
2022-10-22T02:28:38.410Z,0.73
2022-10-22T02:31:14.456Z,0.75
2022-10-22T02:33:47.146Z,0.52
2022-10-22T02:38:44.014Z,0.52
2022-10-22T02:41:12.018Z,0.60
2022-10-22T02:43:44.378Z,0.77
2022-10-22T02:46:13.876Z,0.65
2022-10-22T02:48:41.898Z,0.63
2022-10-22T02:51:09.890Z,0.80
2022-10-22T02:53:37.864Z,0.60
2022-10-22T02:56:06.155Z,0.68
2022-10-22T02:58:34.284Z,0.60
2022-10-22T03:01:02.630Z,0.70
2022-10-22T03:03:32.094Z,0.68
2022-10-22T03:06:01.554Z,0.80
2022-10-22T03:08:29.642Z,0.55
2022-10-22T03:10:57.646Z,0.35
2022-10-22T03:13:25.622Z,0.57
2022-10-22T03:15:53.570Z,0.60
2022-10-22T03:18:21.627Z,0.50
2022-10-22T03:20:51.206Z,0.60
2022-10-22T03:23:21.009Z,0.65
2022-10-22T03:25:50.839Z,0.50
2022-10-22T03:28:19.784Z,0.40
2022-10-22T03:30:47.972Z,0.30
2022-10-22T03:33:16.002Z,0.50
2022-10-22T03:35:47.633Z,0.55
2022-10-22T03:38:17.219Z,0.50
2022-10-22T03:40:47.185Z,1.20
2022-10-22T03:43:15.394Z,0.40
2022-10-22T03:45:43.366Z,0.40
2022-10-22T03:48:11.370Z,0.30
2022-10-22T03:50:39.308Z,0.40
2022-10-22T03:53:10.603Z,0.28
2022-10-22T03:55:42.093Z,0.68
2022-10-22T03:58:10.079Z,0.52
2022-10-22T04:00:38.234Z,0.40
2022-10-22T04:03:06.255Z,0.30
2022-10-22T04:05:34.654Z,0.60
2022-10-22T04:08:03.037Z,0.30
2022-10-22T04:10:31.063Z,0.57
2022-10-22T04:13:00.524Z,0.38
2022-10-22T04:15:29.061Z,0.40
2022-10-22T04:17:57.398Z,0.35
2022-10-22T04:20:25.535Z,0.40
2022-10-22T04:22:53.679Z,0.43
2022-10-22T04:25:21.781Z,0.30
2022-10-22T04:27:49.811Z,0.30
2022-10-22T04:30:19.384Z,0.35
2022-10-22T04:32:47.293Z,0.32
2022-10-22T04:35:15.555Z,0.40
2022-10-22T04:37:43.559Z,0.30
2022-10-22T04:40:13.017Z,0.50
2022-10-22T04:42:41.203Z,0.60
2022-10-22T04:45:10.451Z,0.40
2022-10-22T04:47:40.221Z,0.30
2022-10-22T04:50:09.343Z,0.10
2022-10-22T04:52:37.315Z,0.50
2022-10-22T04:55:05.787Z,0.30
2022-10-22T04:57:34.022Z,0.73
2022-10-22T05:00:02.142Z,0.20
2022-10-22T05:02:30.220Z,0.55
2022-10-22T05:04:59.634Z,0.57
2022-10-22T05:07:27.645Z,0.30
2022-10-22T05:09:55.732Z,0.40
2022-10-22T05:12:23.700Z,0.50
2022-10-22T05:14:51.747Z,0.30
2022-10-22T05:17:19.794Z,0.28
2022-10-22T05:19:47.841Z,0.70
2022-10-22T05:22:17.432Z,0.30
2022-10-22T05:24:45.495Z,0.30
2022-10-22T05:27:13.502Z,0.25
2022-10-22T05:29:41.639Z,0.20
2022-10-22T05:32:09.840Z,0.32
2022-10-22T05:34:38.045Z,0.30
2022-10-22T05:37:06.208Z,0.30
2022-10-22T05:39:36.969Z,0.20
2022-10-22T05:42:05.208Z,0.30
2022-10-22T05:44:33.262Z,0.17
2022-10-22T05:47:01.294Z,0.50
2022-10-22T05:49:29.390Z,0.45
2022-10-22T05:51:57.352Z,0.20
2022-10-22T05:54:25.311Z,0.20
2022-10-22T05:56:55.571Z,0.30
2022-10-22T05:59:24.513Z,0.20
2022-10-22T06:01:52.652Z,0.40
2022-10-22T06:04:20.731Z,0.85
2022-10-22T06:06:51.145Z,1.13
2022-10-22T06:09:22.938Z,0.47
2022-10-22T06:11:51.760Z,0.60
2022-10-22T06:14:21.678Z,0.30
2022-10-22T06:16:50.383Z,0.30
2022-10-22T06:19:21.522Z,0.40
2022-10-22T06:21:49.998Z,0.47
2022-10-22T06:24:18.246Z,1.35
2022-10-22T06:26:46.410Z,0.75
2022-10-22T06:29:14.414Z,0.70
2022-10-22T06:31:43.785Z,0.70
2022-10-22T06:34:14.869Z,1.05
2022-10-22T06:36:45.140Z,2.15
2022-10-22T06:39:15.394Z,0.65
2022-10-22T06:41:43.568Z,0.50
2022-10-22T06:44:15.535Z,0.50
2022-10-22T06:46:45.105Z,0.30
2022-10-22T06:49:14.990Z,0.20
2022-10-22T06:51:43.241Z,0.30
2022-10-22T06:54:12.459Z,0.20
2022-10-22T06:56:40.509Z,0.10
2022-10-22T06:59:08.607Z,0.10
2022-10-22T07:01:37.556Z,0.20
2022-10-22T07:04:09.169Z,0.60
2022-10-22T07:06:37.244Z,2.13
2022-10-22T07:09:05.544Z,2.55
2022-10-22T07:11:40.653Z,0.60
2022-10-22T07:14:08.929Z,0.50
2022-10-22T07:16:37.850Z,0.75
2022-10-22T07:19:07.391Z,0.50
2022-10-22T07:21:35.446Z,0.30
2022-10-22T07:24:03.329Z,0.35
2022-10-22T07:26:32.666Z,0.70
2022-10-22T07:29:00.982Z,0.60
2022-10-22T07:31:29.246Z,0.88
2022-10-22T07:33:57.423Z,0.20
2022-10-22T07:36:26.987Z,0.45
2022-10-22T07:38:57.700Z,0.60
2022-10-22T07:41:26.342Z,1.15
2022-10-22T07:43:54.318Z,0.25
2022-10-22T07:46:22.593Z,1.33
2022-10-22T07:48:50.718Z,1.42
2022-10-22T07:51:18.801Z,1.02
2022-10-22T07:53:48.254Z,1.10
2022-10-22T07:56:16.223Z,0.57
2022-10-22T07:58:44.238Z,1.30
2022-10-22T08:01:12.405Z,0.57
2022-10-22T08:03:40.298Z,0.20
2022-10-22T08:06:08.848Z,0.30
2022-10-22T08:08:36.957Z,0.20
2022-10-22T08:11:06.563Z,0.47
2022-10-22T08:13:34.514Z,0.50
2022-10-22T08:16:02.865Z,0.73
2022-10-22T08:18:31.371Z,0.68
2022-10-22T08:20:59.336Z,0.40
2022-10-22T08:23:28.958Z,0.98
2022-10-22T08:25:57.990Z,0.47
2022-10-22T08:28:28.706Z,0.50
2022-10-22T08:30:56.981Z,0.38
2022-10-22T08:33:24.961Z,0.30
2022-10-22T08:35:53.546Z,0.30
2022-10-22T08:38:22.057Z,0.15
2022-10-22T08:40:53.351Z,0.30
2022-10-22T08:44:02.943Z,0.13
2022-10-22T08:46:53.101Z,0.77
2022-10-22T08:49:25.511Z,0.30
2022-10-22T08:51:53.633Z,0.45
2022-10-22T08:54:31.765Z,0.32
2022-10-22T08:57:12.974Z,0.43
2022-10-22T08:59:47.907Z,0.55
2022-10-22T09:02:35.967Z,0.55
2022-10-22T09:05:17.068Z,0.30
2022-10-22T09:07:49.991Z,1.13
2022-10-22T09:10:19.276Z,0.40
2022-10-22T09:12:48.904Z,0.30
2022-10-22T09:15:19.885Z,0.38
2022-10-22T09:18:00.684Z,0.88
2022-10-22T09:20:39.657Z,0.70
2022-10-22T09:23:23.535Z,0.40
2022-10-22T09:25:53.129Z,0.68
2022-10-22T09:28:21.119Z,0.43
2022-10-22T09:30:50.489Z,0.60
2022-10-22T09:33:25.018Z,0.55
2022-10-22T09:35:55.483Z,0.95
2022-10-22T09:38:27.999Z,1.13
2022-10-22T09:40:58.724Z,0.93
2022-10-22T09:43:27.084Z,0.30
2022-10-22T09:46:00.490Z,0.60
2022-10-22T09:48:34.319Z,0.47
2022-10-22T09:51:07.496Z,0.65
2022-10-22T09:53:38.912Z,0.30
2022-10-22T09:56:10.825Z,0.52
2022-10-22T09:58:49.159Z,0.27
2022-10-22T10:01:21.018Z,0.45
2022-10-22T10:03:50.304Z,0.40
2022-10-22T10:06:23.199Z,0.50
2022-10-22T10:08:51.801Z,0.40
2022-10-22T10:11:29.369Z,0.50
2022-10-22T10:14:09.159Z,0.50
2022-10-22T10:16:50.677Z,0.40
2022-10-22T10:19:28.970Z,0.50
2022-10-22T10:22:06.663Z,0.50
2022-10-22T10:24:46.287Z,0.60
2022-10-22T10:27:21.829Z,0.50
2022-10-22T10:29:58.351Z,0.50
2022-10-22T10:32:45.463Z,0.40
2022-10-22T10:35:22.790Z,0.40
2022-10-22T10:38:03.960Z,0.30
2022-10-22T10:40:43.590Z,0.30
2022-10-22T10:43:16.660Z,0.10
2022-10-22T10:45:55.793Z,0.38
2022-10-22T10:48:38.032Z,0.40
2022-10-22T10:51:13.090Z,0.20
2022-10-22T10:53:55.469Z,0.40
2022-10-22T10:56:36.828Z,0.80
2022-10-22T10:59:17.551Z,0.20
2022-10-22T11:02:00.666Z,0.20
2022-10-22T11:04:49.049Z,0.22
2022-10-22T11:07:34.243Z,0.20
2022-10-22T11:10:10.626Z,0.28
2022-10-22T11:12:43.747Z,0.40
2022-10-22T11:15:29.185Z,0.20
2022-10-22T11:18:03.545Z,0.20
2022-10-22T11:20:44.686Z,0.15
2022-10-22T11:23:19.878Z,0.17
2022-10-22T11:25:50.413Z,0.15
2022-10-22T11:28:22.070Z,0.20
2022-10-22T11:30:57.588Z,0.17
2022-10-22T11:33:30.291Z,0.20
2022-10-22T11:36:03.656Z,0.20
2022-10-22T11:38:35.035Z,0.35
2022-10-22T11:41:06.272Z,0.20
2022-10-22T11:43:36.361Z,0.35
2022-10-22T11:46:26.676Z,0.20
2022-10-22T11:49:16.374Z,0.43
2022-10-22T11:51:47.276Z,0.50
2022-10-22T11:54:42.609Z,0.60
2022-10-22T11:57:28.081Z,0.30
2022-10-22T11:59:59.521Z,0.55
2022-10-22T12:02:43.048Z,0.30
2022-10-22T12:05:42.681Z,0.22
2022-10-22T12:08:25.856Z,0.20
2022-10-22T12:11:21.571Z,0.25
2022-10-22T12:14:03.995Z,0.17
2022-10-22T12:16:55.158Z,0.28
2022-10-22T12:19:33.009Z,0.15
2022-10-22T12:22:07.333Z,0.73
2022-10-22T12:24:40.453Z,0.32
2022-10-22T12:27:22.445Z,0.30
2022-10-22T12:29:55.027Z,0.52
2022-10-22T12:32:23.423Z,0.30
2022-10-22T12:34:53.532Z,0.28
2022-10-22T12:37:21.610Z,0.40
2022-10-22T12:39:52.139Z,0.60
2022-10-22T12:42:21.926Z,0.40
2022-10-22T12:44:49.868Z,0.40
2022-10-22T12:47:19.097Z,0.40
2022-10-22T12:49:50.732Z,0.60
2022-10-22T12:52:21.317Z,0.30
2022-10-22T12:54:53.493Z,0.30
2022-10-22T12:57:22.246Z,0.38
2022-10-22T12:59:52.203Z,0.32
2022-10-22T13:02:24.329Z,0.60
2022-10-22T13:05:17.807Z,0.70
2022-10-22T13:07:49.487Z,0.40
2022-10-22T13:10:23.911Z,0.43
2022-10-22T13:12:55.011Z,0.60
2022-10-22T13:15:35.232Z,0.40
2022-10-22T13:18:04.925Z,0.52
2022-10-22T13:20:33.417Z,0.50
2022-10-22T13:23:02.808Z,0.32
2022-10-22T13:25:33.529Z,0.63
2022-10-22T13:28:04.065Z,0.80
2022-10-22T13:30:33.980Z,0.50
2022-10-22T13:33:04.197Z,0.28
2022-10-22T13:35:34.807Z,0.40
2022-10-22T13:38:03.313Z,0.50
2022-10-22T13:40:32.857Z,0.57
2022-10-22T13:43:00.813Z,0.40
2022-10-22T13:45:28.884Z,0.75
2022-10-22T13:47:57.035Z,0.52
2022-10-22T13:50:25.178Z,0.65
2022-10-22T13:52:55.258Z,0.77
2022-10-22T13:55:26.824Z,0.50
2022-10-22T13:57:57.483Z,0.40
2022-10-22T14:00:26.014Z,0.50
2022-10-22T14:02:56.868Z,0.60
2022-10-22T14:05:25.468Z,0.60
2022-10-22T14:07:54.365Z,1.10
2022-10-22T14:10:24.230Z,0.70
2022-10-22T14:12:53.700Z,0.85
2022-10-22T14:15:25.276Z,0.65
2022-10-22T14:17:56.672Z,1.42
2022-10-22T14:20:27.617Z,0.50
2022-10-22T14:22:56.483Z,0.68
2022-10-22T14:25:26.666Z,0.52
2022-10-22T14:27:54.769Z,0.50
2022-10-22T14:30:26.670Z,0.68
2022-10-22T14:32:55.070Z,0.70
2022-10-22T14:35:24.419Z,0.90
2022-10-22T14:37:53.922Z,1.05
2022-10-22T14:40:22.447Z,0.63
2022-10-22T14:42:50.464Z,0.30
2022-10-22T14:45:21.597Z,0.50
2022-10-22T14:47:51.746Z,0.82
2022-10-22T14:50:20.346Z,0.57
2022-10-22T14:52:48.629Z,0.90
2022-10-22T14:55:18.301Z,0.50
2022-10-22T14:57:46.453Z,0.55
2022-10-22T15:00:16.500Z,0.60
2022-10-22T15:02:44.964Z,0.70
2022-10-22T15:05:15.348Z,0.70
2022-10-22T15:07:43.696Z,0.50
2022-10-22T15:10:11.980Z,0.43
2022-10-22T15:12:39.999Z,0.80
2022-10-22T15:15:09.192Z,0.45
2022-10-22T15:17:37.213Z,0.60
2022-10-22T15:20:06.522Z,0.43
2022-10-22T15:22:36.158Z,3.20
2022-10-22T15:25:05.157Z,5.63
2022-10-22T15:27:33.119Z,4.28
2022-10-22T15:32:29.759Z,1.33
2022-10-22T15:34:57.815Z,1.40
2022-10-22T15:37:25.910Z,0.60
2022-10-22T15:39:55.345Z,3.85
2022-10-22T15:42:24.015Z,7.35
2022-10-22T15:44:59.250Z,0.73
2022-10-22T15:47:29.524Z,4.15
2022-10-22T15:49:57.972Z,1.20
2022-10-22T15:52:26.026Z,1.27
2022-10-22T15:54:55.465Z,1.00
2022-10-22T15:57:23.600Z,0.80
2022-10-22T15:59:52.071Z,1.30
2022-10-22T16:02:20.203Z,3.67
2022-10-22T16:04:48.159Z,0.80
2022-10-22T16:07:17.328Z,1.23
2022-10-22T16:09:46.781Z,1.23
2022-10-22T16:12:17.332Z,1.13
2022-10-22T16:14:45.453Z,2.10
2022-10-22T16:17:13.891Z,1.38
2022-10-22T16:19:41.785Z,1.90
2022-10-22T16:22:13.635Z,2.17
2022-10-22T16:24:41.657Z,1.05
2022-10-22T16:27:10.217Z,1.88
2022-10-22T16:29:40.329Z,0.88
2022-10-22T16:32:08.507Z,1.30
2022-10-22T16:34:36.499Z,1.52
2022-10-22T16:37:09.692Z,2.40
2022-10-22T16:39:37.712Z,1.45
2022-10-22T16:42:06.257Z,1.70
2022-10-22T16:44:34.196Z,2.10
2022-10-22T16:47:03.581Z,2.10
2022-10-22T16:49:31.517Z,1.67
2022-10-22T16:51:59.562Z,1.30
2022-10-22T16:54:27.515Z,1.48
2022-10-22T16:56:55.474Z,2.35
2022-10-22T16:59:23.370Z,4.13
2022-10-22T17:01:51.298Z,4.20
2022-10-22T17:04:20.621Z,2.53
2022-10-22T17:06:48.550Z,1.27
2022-10-22T17:09:16.794Z,1.52
2022-10-22T17:11:45.087Z,1.70
2022-10-22T17:14:13.123Z,1.50
2022-10-22T17:16:41.014Z,1.60
2022-10-22T17:19:08.974Z,2.28
2022-10-22T17:21:38.210Z,2.08
2022-10-22T17:24:06.463Z,1.60
2022-10-22T17:26:34.674Z,1.13
2022-10-22T17:29:02.586Z,1.27
2022-10-22T17:31:32.839Z,1.27
2022-10-22T17:34:01.173Z,1.05
2022-10-22T17:36:33.328Z,0.90
2022-10-22T17:39:07.860Z,1.35
2022-10-22T17:41:38.052Z,1.00
2022-10-22T17:44:08.989Z,1.00
2022-10-22T17:46:37.225Z,1.60
2022-10-22T17:49:07.868Z,0.90
2022-10-22T17:51:35.950Z,1.30
2022-10-22T17:54:08.800Z,1.67
2022-10-22T17:56:40.005Z,1.52
2022-10-22T17:59:08.301Z,1.23
2022-10-22T18:01:43.260Z,1.77
2022-10-22T18:04:14.165Z,1.95
2022-10-22T18:06:42.142Z,1.60
2022-10-22T18:09:17.403Z,2.30
2022-10-22T18:11:47.499Z,2.85
2022-10-22T18:14:15.545Z,2.50
2022-10-22T18:16:43.551Z,2.40
2022-10-22T18:19:12.153Z,1.80
2022-10-22T18:21:40.090Z,1.77
2022-10-22T18:24:08.376Z,1.77
2022-10-22T18:26:38.081Z,1.13
2022-10-22T18:29:06.036Z,1.40
2022-10-22T18:31:34.134Z,2.05
2022-10-22T18:34:02.109Z,1.27
2022-10-22T18:36:30.096Z,2.08
2022-10-22T18:38:59.530Z,1.80
2022-10-22T18:41:28.483Z,2.75
2022-10-22T18:43:59.821Z,8.60
2022-10-22T18:46:28.940Z,2.90
2022-10-22T18:48:57.761Z,1.30
2022-10-22T18:51:26.607Z,1.73
2022-10-22T18:54:05.247Z,1.23
2022-10-22T18:56:40.787Z,1.23
2022-10-22T18:59:16.364Z,1.10
2022-10-22T19:01:44.334Z,1.35
2022-10-22T19:04:13.343Z,1.65
2022-10-22T19:06:45.092Z,1.30
2022-10-22T19:09:14.714Z,1.50
2022-10-22T19:11:43.561Z,1.50
2022-10-22T19:14:14.674Z,2.00
2022-10-22T19:16:42.683Z,2.08
2022-10-22T19:19:10.745Z,1.80
2022-10-22T19:21:38.796Z,2.10
2022-10-22T19:24:07.494Z,1.83
2022-10-22T19:26:35.666Z,1.30
2022-10-22T19:29:04.298Z,2.00
2022-10-22T19:31:33.917Z,1.75
2022-10-22T19:34:02.700Z,2.10
2022-10-22T19:36:32.521Z,2.00
2022-10-22T19:39:01.726Z,1.48
2022-10-22T19:41:31.963Z,1.63
2022-10-22T19:44:01.575Z,1.58
2022-10-22T19:46:32.402Z,2.00
2022-10-22T19:49:03.675Z,1.67
2022-10-22T19:51:33.741Z,1.65
2022-10-22T19:54:03.826Z,1.42
2022-10-22T19:56:32.374Z,2.00
2022-10-22T19:59:00.735Z,1.30
2022-10-22T20:01:28.759Z,1.83
2022-10-22T20:03:56.836Z,1.50
2022-10-22T20:06:26.376Z,1.30
2022-10-22T20:08:56.193Z,1.77
2022-10-22T20:11:26.701Z,1.67
2022-10-22T20:13:55.147Z,1.70
2022-10-22T20:16:26.014Z,2.70
2022-10-22T20:18:54.013Z,3.55
2022-10-22T20:21:22.697Z,2.97
2022-10-22T20:23:56.526Z,3.03
2022-10-22T20:26:27.773Z,2.60
2022-10-22T20:28:56.205Z,2.00
2022-10-22T20:31:27.023Z,1.60
2022-10-22T20:33:57.158Z,2.22
2022-10-22T20:36:25.941Z,2.40
2022-10-22T20:39:00.423Z,3.30
2022-10-22T20:41:28.399Z,2.95
2022-10-22T20:43:56.642Z,2.85
2022-10-22T20:46:26.776Z,3.17
2022-10-22T20:48:57.471Z,2.55
2022-10-22T20:51:25.664Z,1.63
2022-10-22T20:53:55.147Z,1.70
2022-10-22T20:56:23.506Z,1.95
2022-10-22T20:59:03.864Z,2.15
2022-10-22T21:01:33.946Z,1.88
2022-10-22T21:04:01.865Z,2.00
2022-10-22T21:06:30.360Z,2.60
2022-10-22T21:08:59.675Z,2.15
2022-10-22T21:11:27.716Z,1.88
2022-10-22T21:13:55.646Z,1.95
2022-10-22T21:16:23.799Z,1.92
2022-10-22T21:18:51.893Z,1.48
2022-10-22T21:21:20.035Z,1.27
2022-10-22T21:23:50.092Z,1.67
2022-10-22T21:26:20.157Z,1.77
2022-10-22T21:28:48.605Z,1.38
2022-10-22T21:31:22.054Z,1.20
2022-10-22T21:33:51.052Z,1.10
2022-10-22T21:36:22.643Z,1.58
2022-10-22T21:38:51.637Z,1.33
2022-10-22T21:41:24.650Z,1.20
2022-10-22T21:43:52.975Z,1.30
2022-10-22T21:46:22.798Z,1.58
2022-10-22T21:48:54.658Z,1.20
2022-10-22T21:51:23.771Z,1.20
2022-10-22T21:56:23.113Z,1.50
2022-10-22T21:58:51.205Z,1.10
2022-10-22T22:01:19.521Z,1.08
2022-10-22T22:03:49.890Z,1.42
2022-10-22T22:06:21.412Z,1.25
2022-10-22T22:08:50.343Z,1.50
2022-10-22T22:11:23.341Z,1.25
2022-10-22T22:13:51.775Z,0.93
2022-10-22T22:16:25.390Z,1.00
2022-10-22T22:18:56.366Z,1.17
2022-10-22T22:21:24.337Z,1.67
2022-10-22T22:23:52.461Z,1.83
2022-10-22T22:26:26.760Z,1.48
2022-10-22T22:28:57.974Z,1.58
2022-10-22T22:31:28.227Z,1.10
2022-10-22T22:33:59.338Z,1.35
2022-10-22T22:36:27.497Z,1.15
2022-10-22T22:38:56.829Z,1.10
2022-10-22T22:41:26.120Z,1.20
2022-10-22T22:46:22.041Z,1.13
2022-10-22T22:48:50.874Z,1.02
2022-10-22T22:51:19.278Z,1.02
2022-10-22T22:53:47.550Z,1.05
2022-10-22T22:56:17.897Z,0.95
2022-10-22T22:58:47.610Z,0.85
2022-10-22T23:01:17.963Z,0.63
2022-10-22T23:03:47.286Z,0.75
2022-10-22T23:06:16.068Z,0.73
2022-10-22T23:08:44.681Z,0.82
2022-10-22T23:11:14.357Z,0.90
2022-10-22T23:13:43.526Z,1.00
2022-10-22T23:16:16.485Z,1.17
2022-10-22T23:18:44.880Z,1.08
2022-10-22T23:21:15.044Z,1.10
2022-10-22T23:23:45.362Z,0.80
2022-10-22T23:26:14.664Z,1.00
2022-10-22T23:28:42.564Z,0.80
2022-10-22T23:31:14.769Z,1.00
2022-10-22T23:33:43.026Z,0.93
2022-10-22T23:36:11.742Z,0.88
2022-10-22T23:38:41.134Z,1.00
2022-10-22T23:41:10.078Z,0.93
2022-10-22T23:43:38.361Z,0.55
2022-10-22T23:46:07.167Z,0.60
2022-10-22T23:48:36.797Z,0.77
2022-10-22T23:51:06.373Z,0.77
2022-10-22T23:53:34.343Z,0.82
2022-10-22T23:56:05.817Z,1.02
2022-10-22T23:58:34.515Z,0.70
